sensor_id;sensor_type;location;lat;lon;timestamp;P1;durP1;ratioP1;P2;durP2;ratioP2
2462;SDS011;1243;54.298;10.172;2023-02-28T00:00:30;8.40;;;7.50;;
2462;SDS011;1243;54.298;10.172;2023-02-28T00:02:56;11.30;;;7.33;;
2462;SDS011;1243;54.298;10.172;2023-02-28T00:05:23;8.50;;;7.60;;
2462;SDS011;1243;54.298;10.172;2023-02-28T00:07:50;9.30;;;7.80;;
2462;SDS011;1243;54.298;10.172;2023-02-28T00:10:18;9.70;;;7.93;;
2462;SDS011;1243;54.298;10.172;2023-02-28T00:12:46;9.63;;;8.03;;
2462;SDS011;1243;54.298;10.172;2023-02-28T00:15:13;8.03;;;7.33;;
2462;SDS011;1243;54.298;10.172;2023-02-28T00:17:38;11.47;;;7.97;;
2462;SDS011;1243;54.298;10.172;2023-02-28T00:20:05;9.40;;;8.50;;
2462;SDS011;1243;54.298;10.172;2023-02-28T00:22:40;8.70;;;7.60;;
2462;SDS011;1243;54.298;10.172;2023-02-28T00:25:09;10.03;;;7.47;;
2462;SDS011;1243;54.298;10.172;2023-02-28T00:27:37;13.40;;;8.40;;
2462;SDS011;1243;54.298;10.172;2023-02-28T00:30:04;8.70;;;7.83;;
2462;SDS011;1243;54.298;10.172;2023-02-28T00:32:32;8.63;;;7.37;;
2462;SDS011;1243;54.298;10.172;2023-02-28T00:34:59;20.23;;;9.03;;
2462;SDS011;1243;54.298;10.172;2023-02-28T00:37:25;12.10;;;9.30;;
2462;SDS011;1243;54.298;10.172;2023-02-28T00:39:51;11.80;;;9.03;;
2462;SDS011;1243;54.298;10.172;2023-02-28T00:42:16;11.37;;;9.20;;
2462;SDS011;1243;54.298;10.172;2023-02-28T00:44:42;15.13;;;8.87;;
2462;SDS011;1243;54.298;10.172;2023-02-28T00:47:08;11.83;;;9.17;;
2462;SDS011;1243;54.298;10.172;2023-02-28T00:49:34;14.23;;;10.10;;
2462;SDS011;1243;54.298;10.172;2023-02-28T00:51:59;11.30;;;8.80;;
2462;SDS011;1243;54.298;10.172;2023-02-28T00:54:25;16.30;;;8.73;;
2462;SDS011;1243;54.298;10.172;2023-02-28T00:56:51;11.00;;;7.30;;
2462;SDS011;1243;54.298;10.172;2023-02-28T00:59:17;10.17;;;8.00;;
2462;SDS011;1243;54.298;10.172;2023-02-28T01:01:43;9.23;;;7.67;;
2462;SDS011;1243;54.298;10.172;2023-02-28T01:04:10;11.90;;;7.70;;
2462;SDS011;1243;54.298;10.172;2023-02-28T01:06:36;8.67;;;7.87;;
2462;SDS011;1243;54.298;10.172;2023-02-28T01:09:02;9.77;;;7.87;;
2462;SDS011;1243;54.298;10.172;2023-02-28T01:11:29;7.97;;;7.27;;
2462;SDS011;1243;54.298;10.172;2023-02-28T01:13:55;9.07;;;7.70;;
2462;SDS011;1243;54.298;10.172;2023-02-28T01:16:21;8.77;;;6.60;;
2462;SDS011;1243;54.298;10.172;2023-02-28T01:18:47;8.83;;;7.10;;
2462;SDS011;1243;54.298;10.172;2023-02-28T01:21:13;8.13;;;7.17;;
2462;SDS011;1243;54.298;10.172;2023-02-28T01:23:41;7.83;;;7.23;;
2462;SDS011;1243;54.298;10.172;2023-02-28T01:26:08;8.70;;;7.87;;
2462;SDS011;1243;54.298;10.172;2023-02-28T01:28:36;7.27;;;6.63;;
2462;SDS011;1243;54.298;10.172;2023-02-28T01:31:02;11.30;;;7.57;;
2462;SDS011;1243;54.298;10.172;2023-02-28T01:33:28;7.50;;;6.80;;
2462;SDS011;1243;54.298;10.172;2023-02-28T01:36:01;10.67;;;6.30;;
2462;SDS011;1243;54.298;10.172;2023-02-28T01:38:29;6.20;;;5.47;;
2462;SDS011;1243;54.298;10.172;2023-02-28T01:40:55;8.20;;;5.60;;
2462;SDS011;1243;54.298;10.172;2023-02-28T01:43:22;11.33;;;5.80;;
2462;SDS011;1243;54.298;10.172;2023-02-28T01:45:51;5.77;;;5.30;;
2462;SDS011;1243;54.298;10.172;2023-02-28T01:48:18;7.27;;;6.57;;
2462;SDS011;1243;54.298;10.172;2023-02-28T01:50:47;7.93;;;6.60;;
2462;SDS011;1243;54.298;10.172;2023-02-28T01:53:15;6.17;;;5.67;;
2462;SDS011;1243;54.298;10.172;2023-02-28T01:55:45;10.90;;;7.20;;
2462;SDS011;1243;54.298;10.172;2023-02-28T01:58:14;7.60;;;6.07;;
2462;SDS011;1243;54.298;10.172;2023-02-28T02:00:40;9.93;;;7.70;;
2462;SDS011;1243;54.298;10.172;2023-02-28T02:03:11;7.77;;;6.90;;
2462;SDS011;1243;54.298;10.172;2023-02-28T02:05:40;12.23;;;6.93;;
2462;SDS011;1243;54.298;10.172;2023-02-28T02:08:10;10.40;;;7.27;;
2462;SDS011;1243;54.298;10.172;2023-02-28T02:10:54;7.83;;;7.13;;
2462;SDS011;1243;54.298;10.172;2023-02-28T02:25:14;10.33;;;7.10;;
2462;SDS011;1243;54.298;10.172;2023-02-28T02:35:46;8.90;;;7.03;;
2462;SDS011;1243;54.298;10.172;2023-02-28T02:41:17;10.27;;;6.27;;
2462;SDS011;1243;54.298;10.172;2023-02-28T02:46:41;8.50;;;6.80;;
2462;SDS011;1243;54.298;10.172;2023-02-28T02:49:10;7.97;;;7.27;;
2462;SDS011;1243;54.298;10.172;2023-02-28T02:51:40;8.63;;;7.37;;
2462;SDS011;1243;54.298;10.172;2023-02-28T02:54:11;11.00;;;8.73;;
2462;SDS011;1243;54.298;10.172;2023-02-28T02:57:08;8.47;;;7.60;;
2462;SDS011;1243;54.298;10.172;2023-02-28T02:59:42;9.07;;;7.50;;
2462;SDS011;1243;54.298;10.172;2023-02-28T03:02:09;8.50;;;7.10;;
2462;SDS011;1243;54.298;10.172;2023-02-28T03:04:42;9.50;;;7.30;;
2462;SDS011;1243;54.298;10.172;2023-02-28T03:07:11;8.27;;;7.47;;
2462;SDS011;1243;54.298;10.172;2023-02-28T03:09:37;8.23;;;7.27;;
2462;SDS011;1243;54.298;10.172;2023-02-28T03:12:02;9.93;;;8.17;;
2462;SDS011;1243;54.298;10.172;2023-02-28T03:17:29;8.33;;;7.03;;
2462;SDS011;1243;54.298;10.172;2023-02-28T03:20:17;8.77;;;7.90;;
2462;SDS011;1243;54.298;10.172;2023-02-28T03:23:10;8.30;;;7.10;;
2462;SDS011;1243;54.298;10.172;2023-02-28T03:28:25;9.80;;;7.60;;
2462;SDS011;1243;54.298;10.172;2023-02-28T03:34:26;6.50;;;5.90;;
2462;SDS011;1243;54.298;10.172;2023-02-28T03:36:47;8.67;;;7.87;;
2462;SDS011;1243;54.298;10.172;2023-02-28T03:39:17;7.00;;;6.47;;
2462;SDS011;1243;54.298;10.172;2023-02-28T03:41:55;8.97;;;6.67;;
2462;SDS011;1243;54.298;10.172;2023-02-28T03:44:46;8.00;;;6.90;;
2462;SDS011;1243;54.298;10.172;2023-02-28T03:47:21;7.10;;;6.07;;
2462;SDS011;1243;54.298;10.172;2023-02-28T03:49:59;8.37;;;6.50;;
2462;SDS011;1243;54.298;10.172;2023-02-28T03:52:32;7.33;;;6.63;;
2462;SDS011;1243;54.298;10.172;2023-02-28T03:55:01;8.00;;;5.97;;
2462;SDS011;1243;54.298;10.172;2023-02-28T03:57:34;8.77;;;7.87;;
2462;SDS011;1243;54.298;10.172;2023-02-28T04:00:25;8.10;;;6.33;;
2462;SDS011;1243;54.298;10.172;2023-02-28T04:02:55;6.67;;;6.00;;
2462;SDS011;1243;54.298;10.172;2023-02-28T04:05:22;7.83;;;6.60;;
2462;SDS011;1243;54.298;10.172;2023-02-28T04:07:48;7.27;;;5.97;;
2462;SDS011;1243;54.298;10.172;2023-02-28T04:10:15;8.10;;;6.60;;
2462;SDS011;1243;54.298;10.172;2023-02-28T04:12:41;7.60;;;6.90;;
2462;SDS011;1243;54.298;10.172;2023-02-28T04:15:07;7.50;;;6.80;;
2462;SDS011;1243;54.298;10.172;2023-02-28T04:17:33;7.90;;;7.23;;
2462;SDS011;1243;54.298;10.172;2023-02-28T04:19:59;7.30;;;6.20;;
2462;SDS011;1243;54.298;10.172;2023-02-28T04:22:24;6.13;;;5.57;;
2462;SDS011;1243;54.298;10.172;2023-02-28T04:24:53;7.27;;;6.67;;
2462;SDS011;1243;54.298;10.172;2023-02-28T04:27:19;9.47;;;6.60;;
2462;SDS011;1243;54.298;10.172;2023-02-28T04:29:46;10.33;;;8.17;;
2462;SDS011;1243;54.298;10.172;2023-02-28T04:32:12;6.90;;;6.20;;
2462;SDS011;1243;54.298;10.172;2023-02-28T04:34:37;10.20;;;7.47;;
2462;SDS011;1243;54.298;10.172;2023-02-28T04:37:04;8.07;;;6.67;;
2462;SDS011;1243;54.298;10.172;2023-02-28T04:39:30;10.80;;;6.77;;
2462;SDS011;1243;54.298;10.172;2023-02-28T04:41:59;7.27;;;6.67;;
2462;SDS011;1243;54.298;10.172;2023-02-28T04:44:25;7.00;;;6.40;;
2462;SDS011;1243;54.298;10.172;2023-02-28T04:46:50;7.30;;;5.80;;
2462;SDS011;1243;54.298;10.172;2023-02-28T04:49:16;6.70;;;6.10;;
2462;SDS011;1243;54.298;10.172;2023-02-28T04:51:42;10.50;;;7.03;;
2462;SDS011;1243;54.298;10.172;2023-02-28T04:54:08;7.57;;;6.40;;
2462;SDS011;1243;54.298;10.172;2023-02-28T04:56:34;7.40;;;6.70;;
2462;SDS011;1243;54.298;10.172;2023-02-28T04:59:00;7.50;;;6.67;;
2462;SDS011;1243;54.298;10.172;2023-02-28T05:01:30;7.67;;;6.80;;
2462;SDS011;1243;54.298;10.172;2023-02-28T05:03:58;9.90;;;7.83;;
2462;SDS011;1243;54.298;10.172;2023-02-28T05:06:26;12.50;;;7.47;;
2462;SDS011;1243;54.298;10.172;2023-02-28T05:08:54;7.80;;;7.10;;
2462;SDS011;1243;54.298;10.172;2023-02-28T05:11:21;8.33;;;6.50;;
2462;SDS011;1243;54.298;10.172;2023-02-28T05:13:50;7.10;;;6.43;;
2462;SDS011;1243;54.298;10.172;2023-02-28T05:16:16;7.10;;;6.40;;
2462;SDS011;1243;54.298;10.172;2023-02-28T05:18:42;6.33;;;5.83;;
2462;SDS011;1243;54.298;10.172;2023-02-28T05:21:49;7.73;;;6.73;;
2462;SDS011;1243;54.298;10.172;2023-02-28T05:24:12;7.07;;;6.30;;
2462;SDS011;1243;54.298;10.172;2023-02-28T05:26:39;7.23;;;6.53;;
2462;SDS011;1243;54.298;10.172;2023-02-28T05:29:07;6.50;;;5.90;;
2462;SDS011;1243;54.298;10.172;2023-02-28T05:31:33;8.40;;;7.60;;
2462;SDS011;1243;54.298;10.172;2023-02-28T05:33:59;9.80;;;8.20;;
2462;SDS011;1243;54.298;10.172;2023-02-28T05:36:25;7.03;;;6.30;;
2462;SDS011;1243;54.298;10.172;2023-02-28T05:38:51;7.30;;;6.70;;
2462;SDS011;1243;54.298;10.172;2023-02-28T05:41:17;13.70;;;7.10;;
2462;SDS011;1243;54.298;10.172;2023-02-28T05:43:45;8.77;;;7.03;;
2462;SDS011;1243;54.298;10.172;2023-02-28T05:46:11;9.60;;;7.07;;
2462;SDS011;1243;54.298;10.172;2023-02-28T05:48:38;7.13;;;6.50;;
2462;SDS011;1243;54.298;10.172;2023-02-28T05:51:05;9.37;;;7.53;;
2462;SDS011;1243;54.298;10.172;2023-02-28T05:53:32;8.40;;;7.60;;
2462;SDS011;1243;54.298;10.172;2023-02-28T05:55:59;8.90;;;6.63;;
2462;SDS011;1243;54.298;10.172;2023-02-28T05:58:24;9.33;;;7.90;;
2462;SDS011;1243;54.298;10.172;2023-02-28T06:00:54;12.33;;;8.47;;
2462;SDS011;1243;54.298;10.172;2023-02-28T06:03:19;9.47;;;7.93;;
2462;SDS011;1243;54.298;10.172;2023-02-28T06:05:45;11.03;;;7.47;;
2462;SDS011;1243;54.298;10.172;2023-02-28T06:08:11;9.80;;;7.23;;
2462;SDS011;1243;54.298;10.172;2023-02-28T06:10:36;9.60;;;8.10;;
2462;SDS011;1243;54.298;10.172;2023-02-28T06:13:03;11.13;;;8.17;;
2462;SDS011;1243;54.298;10.172;2023-02-28T06:15:29;8.30;;;7.50;;
2462;SDS011;1243;54.298;10.172;2023-02-28T06:17:55;12.93;;;8.50;;
2462;SDS011;1243;54.298;10.172;2023-02-28T06:20:22;11.10;;;8.17;;
2462;SDS011;1243;54.298;10.172;2023-02-28T06:22:48;10.07;;;8.00;;
2462;SDS011;1243;54.298;10.172;2023-02-28T06:25:16;12.40;;;8.80;;
2462;SDS011;1243;54.298;10.172;2023-02-28T06:27:43;12.70;;;9.07;;
2462;SDS011;1243;54.298;10.172;2023-02-28T06:30:09;11.13;;;8.03;;
2462;SDS011;1243;54.298;10.172;2023-02-28T06:32:36;11.60;;;8.50;;
2462;SDS011;1243;54.298;10.172;2023-02-28T06:35:02;8.20;;;7.10;;
2462;SDS011;1243;54.298;10.172;2023-02-28T06:37:30;12.57;;;9.20;;
2462;SDS011;1243;54.298;10.172;2023-02-28T06:39:56;11.23;;;10.03;;
2462;SDS011;1243;54.298;10.172;2023-02-28T06:42:22;11.73;;;8.70;;
2462;SDS011;1243;54.298;10.172;2023-02-28T06:44:53;9.83;;;8.53;;
2462;SDS011;1243;54.298;10.172;2023-02-28T06:47:20;12.60;;;9.25;;
2462;SDS011;1243;54.298;10.172;2023-02-28T06:49:46;10.27;;;9.07;;
2462;SDS011;1243;54.298;10.172;2023-02-28T06:52:12;12.10;;;8.60;;
2462;SDS011;1243;54.298;10.172;2023-02-28T06:54:37;10.80;;;8.73;;
2462;SDS011;1243;54.298;10.172;2023-02-28T06:57:03;12.47;;;9.20;;
2462;SDS011;1243;54.298;10.172;2023-02-28T06:59:29;9.73;;;8.63;;
2462;SDS011;1243;54.298;10.172;2023-02-28T07:01:55;10.00;;;8.20;;
2462;SDS011;1243;54.298;10.172;2023-02-28T07:04:21;9.97;;;8.97;;
2462;SDS011;1243;54.298;10.172;2023-02-28T07:06:47;8.83;;;7.93;;
2462;SDS011;1243;54.298;10.172;2023-02-28T07:09:13;10.00;;;8.30;;
2462;SDS011;1243;54.298;10.172;2023-02-28T07:11:39;11.80;;;8.90;;
2462;SDS011;1243;54.298;10.172;2023-02-28T07:14:05;10.20;;;8.47;;
2462;SDS011;1243;54.298;10.172;2023-02-28T07:16:31;11.30;;;7.33;;
2462;SDS011;1243;54.298;10.172;2023-02-28T07:18:58;9.37;;;8.40;;
2462;SDS011;1243;54.298;10.172;2023-02-28T07:21:24;13.30;;;7.70;;
2462;SDS011;1243;54.298;10.172;2023-02-28T07:23:50;11.10;;;8.50;;
2462;SDS011;1243;54.298;10.172;2023-02-28T07:26:17;10.60;;;8.03;;
2462;SDS011;1243;54.298;10.172;2023-02-28T07:28:44;11.50;;;9.43;;
2462;SDS011;1243;54.298;10.172;2023-02-28T07:31:12;11.40;;;9.00;;
2462;SDS011;1243;54.298;10.172;2023-02-28T07:33:39;13.70;;;9.53;;
2462;SDS011;1243;54.298;10.172;2023-02-28T07:36:05;14.03;;;9.03;;
2462;SDS011;1243;54.298;10.172;2023-02-28T07:38:34;10.73;;;8.73;;
2462;SDS011;1243;54.298;10.172;2023-02-28T07:41:01;10.73;;;7.83;;
2462;SDS011;1243;54.298;10.172;2023-02-28T07:43:29;13.33;;;7.47;;
2462;SDS011;1243;54.298;10.172;2023-02-28T07:46:04;12.83;;;8.47;;
2462;SDS011;1243;54.298;10.172;2023-02-28T07:48:32;17.80;;;9.00;;
2462;SDS011;1243;54.298;10.172;2023-02-28T07:50:58;10.33;;;9.03;;
2462;SDS011;1243;54.298;10.172;2023-02-28T07:53:25;15.53;;;8.97;;
2462;SDS011;1243;54.298;10.172;2023-02-28T07:55:54;10.10;;;9.07;;
2462;SDS011;1243;54.298;10.172;2023-02-28T07:58:24;18.63;;;9.87;;
2462;SDS011;1243;54.298;10.172;2023-02-28T08:00:50;13.07;;;10.50;;
2462;SDS011;1243;54.298;10.172;2023-02-28T08:03:17;10.13;;;9.03;;
2462;SDS011;1243;54.298;10.172;2023-02-28T08:05:44;9.47;;;8.50;;
2462;SDS011;1243;54.298;10.172;2023-02-28T08:08:10;14.63;;;8.90;;
2462;SDS011;1243;54.298;10.172;2023-02-28T08:10:36;14.03;;;10.60;;
2462;SDS011;1243;54.298;10.172;2023-02-28T08:13:02;11.00;;;9.37;;
2462;SDS011;1243;54.298;10.172;2023-02-28T08:15:28;19.97;;;10.57;;
2462;SDS011;1243;54.298;10.172;2023-02-28T08:17:53;9.97;;;8.57;;
2462;SDS011;1243;54.298;10.172;2023-02-28T08:20:21;12.43;;;8.90;;
2462;SDS011;1243;54.298;10.172;2023-02-28T08:22:47;11.67;;;7.93;;
2462;SDS011;1243;54.298;10.172;2023-02-28T08:25:13;10.13;;;7.80;;
2462;SDS011;1243;54.298;10.172;2023-02-28T08:27:39;15.93;;;8.87;;
2462;SDS011;1243;54.298;10.172;2023-02-28T08:30:05;14.43;;;7.90;;
2462;SDS011;1243;54.298;10.172;2023-02-28T08:32:32;11.23;;;7.30;;
2462;SDS011;1243;54.298;10.172;2023-02-28T08:34:58;12.33;;;7.27;;
2462;SDS011;1243;54.298;10.172;2023-02-28T08:37:24;8.50;;;6.53;;
2462;SDS011;1243;54.298;10.172;2023-02-28T08:39:50;7.17;;;6.57;;
2462;SDS011;1243;54.298;10.172;2023-02-28T08:42:16;7.70;;;5.90;;
2462;SDS011;1243;54.298;10.172;2023-02-28T08:44:42;10.10;;;7.60;;
2462;SDS011;1243;54.298;10.172;2023-02-28T08:47:08;7.03;;;6.43;;
2462;SDS011;1243;54.298;10.172;2023-02-28T08:49:33;8.73;;;7.17;;
2462;SDS011;1243;54.298;10.172;2023-02-28T08:51:59;9.37;;;5.83;;
2462;SDS011;1243;54.298;10.172;2023-02-28T08:54:25;17.50;;;6.20;;
2462;SDS011;1243;54.298;10.172;2023-02-28T08:56:51;8.60;;;5.13;;
2462;SDS011;1243;54.298;10.172;2023-02-28T08:59:16;8.63;;;5.20;;
2462;SDS011;1243;54.298;10.172;2023-02-28T09:01:42;7.20;;;5.03;;
2462;SDS011;1243;54.298;10.172;2023-02-28T09:04:08;4.67;;;4.23;;
2462;SDS011;1243;54.298;10.172;2023-02-28T09:06:36;6.23;;;5.63;;
2462;SDS011;1243;54.298;10.172;2023-02-28T09:09:02;6.50;;;4.80;;
2462;SDS011;1243;54.298;10.172;2023-02-28T09:11:30;7.97;;;5.50;;
2462;SDS011;1243;54.298;10.172;2023-02-28T09:13:57;10.50;;;4.53;;
2462;SDS011;1243;54.298;10.172;2023-02-28T09:16:24;7.73;;;4.67;;
2462;SDS011;1243;54.298;10.172;2023-02-28T09:18:49;6.57;;;5.07;;
2462;SDS011;1243;54.298;10.172;2023-02-28T09:21:16;5.63;;;4.57;;
2462;SDS011;1243;54.298;10.172;2023-02-28T09:23:44;5.00;;;4.60;;
2462;SDS011;1243;54.298;10.172;2023-02-28T09:26:17;8.43;;;5.00;;
2462;SDS011;1243;54.298;10.172;2023-02-28T09:28:50;5.50;;;5.00;;
2462;SDS011;1243;54.298;10.172;2023-02-28T09:31:18;7.10;;;5.53;;
2462;SDS011;1243;54.298;10.172;2023-02-28T09:33:46;10.50;;;5.20;;
2462;SDS011;1243;54.298;10.172;2023-02-28T09:36:17;5.00;;;4.43;;
2462;SDS011;1243;54.298;10.172;2023-02-28T09:38:43;8.67;;;5.40;;
2462;SDS011;1243;54.298;10.172;2023-02-28T09:41:14;7.03;;;4.07;;
2462;SDS011;1243;54.298;10.172;2023-02-28T09:43:46;3.70;;;3.50;;
2462;SDS011;1243;54.298;10.172;2023-02-28T09:49:17;8.20;;;3.90;;
2462;SDS011;1243;54.298;10.172;2023-02-28T09:51:56;4.40;;;4.10;;
2462;SDS011;1243;54.298;10.172;2023-02-28T09:54:28;2.77;;;2.63;;
2462;SDS011;1243;54.298;10.172;2023-02-28T09:56:57;7.00;;;5.07;;
2462;SDS011;1243;54.298;10.172;2023-02-28T09:59:36;8.57;;;4.13;;
2462;SDS011;1243;54.298;10.172;2023-02-28T10:04:56;3.27;;;3.07;;
2462;SDS011;1243;54.298;10.172;2023-02-28T10:10:42;5.07;;;4.57;;
2462;SDS011;1243;54.298;10.172;2023-02-28T10:16:22;3.40;;;3.20;;
2462;SDS011;1243;54.298;10.172;2023-02-28T10:18:56;3.40;;;3.10;;
2462;SDS011;1243;54.298;10.172;2023-02-28T10:21:31;9.10;;;3.60;;
2462;SDS011;1243;54.298;10.172;2023-02-28T10:24:19;2.70;;;2.43;;
2462;SDS011;1243;54.298;10.172;2023-02-28T10:26:50;3.80;;;2.93;;
2462;SDS011;1243;54.298;10.172;2023-02-28T10:29:24;2.90;;;2.70;;
2462;SDS011;1243;54.298;10.172;2023-02-28T10:31:49;4.10;;;3.20;;
2462;SDS011;1243;54.298;10.172;2023-02-28T10:34:15;3.00;;;2.73;;
2462;SDS011;1243;54.298;10.172;2023-02-28T10:36:41;2.90;;;2.70;;
2462;SDS011;1243;54.298;10.172;2023-02-28T10:42:04;2.90;;;2.70;;
2462;SDS011;1243;54.298;10.172;2023-02-28T10:44:43;2.57;;;2.37;;
2462;SDS011;1243;54.298;10.172;2023-02-28T10:47:13;2.77;;;2.20;;
2462;SDS011;1243;54.298;10.172;2023-02-28T10:49:47;3.17;;;2.87;;
2462;SDS011;1243;54.298;10.172;2023-02-28T10:52:16;3.30;;;2.50;;
2462;SDS011;1243;54.298;10.172;2023-02-28T10:58:00;3.77;;;2.53;;
2462;SDS011;1243;54.298;10.172;2023-02-28T11:00:26;3.57;;;2.80;;
2462;SDS011;1243;54.298;10.172;2023-02-28T11:03:00;4.23;;;3.00;;
2462;SDS011;1243;54.298;10.172;2023-02-28T11:05:33;2.80;;;2.60;;
2462;SDS011;1243;54.298;10.172;2023-02-28T11:08:19;3.20;;;2.60;;
2462;SDS011;1243;54.298;10.172;2023-02-28T11:10:46;3.43;;;3.13;;
2462;SDS011;1243;54.298;10.172;2023-02-28T11:13:17;2.70;;;2.50;;
2462;SDS011;1243;54.298;10.172;2023-02-28T11:15:51;2.93;;;2.63;;
2462;SDS011;1243;54.298;10.172;2023-02-28T11:18:21;2.53;;;2.33;;
2462;SDS011;1243;54.298;10.172;2023-02-28T11:20:59;4.50;;;2.83;;
2462;SDS011;1243;54.298;10.172;2023-02-28T11:23:27;2.90;;;2.70;;
2462;SDS011;1243;54.298;10.172;2023-02-28T11:25:58;3.50;;;3.00;;
2462;SDS011;1243;54.298;10.172;2023-02-28T11:28:34;2.80;;;2.60;;
2462;SDS011;1243;54.298;10.172;2023-02-28T11:33:52;4.87;;;3.17;;
2462;SDS011;1243;54.298;10.172;2023-02-28T11:36:24;3.27;;;3.07;;
2462;SDS011;1243;54.298;10.172;2023-02-28T11:38:51;2.93;;;2.73;;
2462;SDS011;1243;54.298;10.172;2023-02-28T11:41:28;3.80;;;3.50;;
2462;SDS011;1243;54.298;10.172;2023-02-28T11:54:35;2.67;;;2.50;;
2462;SDS011;1243;54.298;10.172;2023-02-28T11:57:15;5.37;;;2.80;;
2462;SDS011;1243;54.298;10.172;2023-02-28T12:00:17;4.20;;;2.70;;
2462;SDS011;1243;54.298;10.172;2023-02-28T12:05:46;3.70;;;2.73;;
2462;SDS011;1243;54.298;10.172;2023-02-28T12:08:23;3.67;;;2.80;;
2462;SDS011;1243;54.298;10.172;2023-02-28T12:18:14;2.90;;;2.40;;
2462;SDS011;1243;54.298;10.172;2023-02-28T12:32:36;3.70;;;2.40;;
2462;SDS011;1243;54.298;10.172;2023-02-28T13:06:14;2.23;;;2.00;;
2462;SDS011;1243;54.298;10.172;2023-02-28T13:09:03;3.73;;;2.30;;
2462;SDS011;1243;54.298;10.172;2023-02-28T13:11:38;2.73;;;1.90;;
2462;SDS011;1243;54.298;10.172;2023-02-28T13:14:05;2.20;;;2.00;;
2462;SDS011;1243;54.298;10.172;2023-02-28T13:24:52;3.80;;;1.67;;
2462;SDS011;1243;54.298;10.172;2023-02-28T13:27:34;1.70;;;1.60;;
2462;SDS011;1243;54.298;10.172;2023-02-28T13:33:19;2.33;;;1.83;;
2462;SDS011;1243;54.298;10.172;2023-02-28T13:36:06;2.70;;;1.50;;
2462;SDS011;1243;54.298;10.172;2023-02-28T13:38:36;1.87;;;1.67;;
2462;SDS011;1243;54.298;10.172;2023-02-28T13:47:22;1.83;;;1.20;;
2462;SDS011;1243;54.298;10.172;2023-02-28T13:49:31;2.00;;;1.60;;
2462;SDS011;1243;54.298;10.172;2023-02-28T14:03:38;2.90;;;1.87;;
2462;SDS011;1243;54.298;10.172;2023-02-28T14:06:24;2.63;;;1.90;;
2462;SDS011;1243;54.298;10.172;2023-02-28T14:11:51;2.80;;;2.20;;
2462;SDS011;1243;54.298;10.172;2023-02-28T14:17:01;3.13;;;2.43;;
2462;SDS011;1243;54.298;10.172;2023-02-28T14:19:30;2.87;;;2.67;;
2462;SDS011;1243;54.298;10.172;2023-02-28T14:24:51;3.10;;;2.20;;
2462;SDS011;1243;54.298;10.172;2023-02-28T14:35:45;5.20;;;2.20;;
2462;SDS011;1243;54.298;10.172;2023-02-28T14:38:32;3.03;;;2.83;;
2462;SDS011;1243;54.298;10.172;2023-02-28T14:43:48;3.17;;;2.87;;
2462;SDS011;1243;54.298;10.172;2023-02-28T14:46:19;3.23;;;2.80;;
2462;SDS011;1243;54.298;10.172;2023-02-28T14:48:46;3.03;;;2.70;;
2462;SDS011;1243;54.298;10.172;2023-02-28T14:51:18;5.47;;;3.10;;
2462;SDS011;1243;54.298;10.172;2023-02-28T14:53:47;2.90;;;2.70;;
2462;SDS011;1243;54.298;10.172;2023-02-28T14:56:37;2.90;;;2.70;;
2462;SDS011;1243;54.298;10.172;2023-02-28T14:59:04;4.10;;;3.13;;
2462;SDS011;1243;54.298;10.172;2023-02-28T15:01:31;3.70;;;3.30;;
2462;SDS011;1243;54.298;10.172;2023-02-28T15:04:04;4.40;;;2.60;;
2462;SDS011;1243;54.298;10.172;2023-02-28T15:06:31;3.03;;;2.83;;
2462;SDS011;1243;54.298;10.172;2023-02-28T15:11:54;2.80;;;2.60;;
2462;SDS011;1243;54.298;10.172;2023-02-28T15:14:20;3.30;;;3.10;;
2462;SDS011;1243;54.298;10.172;2023-02-28T15:16:51;5.00;;;3.00;;
2462;SDS011;1243;54.298;10.172;2023-02-28T15:19:22;3.07;;;2.30;;
2462;SDS011;1243;54.298;10.172;2023-02-28T15:21:55;3.70;;;2.70;;
2462;SDS011;1243;54.298;10.172;2023-02-28T15:24:41;3.63;;;2.40;;
2462;SDS011;1243;54.298;10.172;2023-02-28T15:27:29;4.07;;;2.93;;
2462;SDS011;1243;54.298;10.172;2023-02-28T15:30:00;2.70;;;2.50;;
2462;SDS011;1243;54.298;10.172;2023-02-28T15:32:35;5.50;;;2.87;;
2462;SDS011;1243;54.298;10.172;2023-02-28T15:37:57;3.40;;;3.10;;
2462;SDS011;1243;54.298;10.172;2023-02-28T15:40:43;5.53;;;2.93;;
2462;SDS011;1243;54.298;10.172;2023-02-28T15:43:22;5.03;;;2.90;;
2462;SDS011;1243;54.298;10.172;2023-02-28T15:53:41;4.30;;;2.90;;
2462;SDS011;1243;54.298;10.172;2023-02-28T15:56:35;3.27;;;3.03;;
2462;SDS011;1243;54.298;10.172;2023-02-28T15:59:04;5.63;;;4.50;;
2462;SDS011;1243;54.298;10.172;2023-02-28T16:01:35;4.00;;;3.60;;
2462;SDS011;1243;54.298;10.172;2023-02-28T16:04:06;3.23;;;2.93;;
2462;SDS011;1243;54.298;10.172;2023-02-28T16:09:13;3.23;;;3.00;;
2462;SDS011;1243;54.298;10.172;2023-02-28T16:11:42;15.27;;;9.10;;
2462;SDS011;1243;54.298;10.172;2023-02-28T16:14:16;12.00;;;7.00;;
2462;SDS011;1243;54.298;10.172;2023-02-28T16:16:55;5.10;;;3.33;;
2462;SDS011;1243;54.298;10.172;2023-02-28T16:19:26;3.30;;;2.70;;
2462;SDS011;1243;54.298;10.172;2023-02-28T16:21:52;9.70;;;3.60;;
2462;SDS011;1243;54.298;10.172;2023-02-28T16:24:18;3.23;;;2.97;;
2462;SDS011;1243;54.298;10.172;2023-02-28T16:26:45;3.40;;;3.10;;
2462;SDS011;1243;54.298;10.172;2023-02-28T16:29:18;3.37;;;3.17;;
2462;SDS011;1243;54.298;10.172;2023-02-28T16:31:49;2.80;;;2.60;;
2462;SDS011;1243;54.298;10.172;2023-02-28T16:34:15;3.47;;;3.17;;
2462;SDS011;1243;54.298;10.172;2023-02-28T16:36:41;3.60;;;3.30;;
2462;SDS011;1243;54.298;10.172;2023-02-28T16:39:06;3.00;;;2.80;;
2462;SDS011;1243;54.298;10.172;2023-02-28T16:41:32;3.20;;;3.00;;
2462;SDS011;1243;54.298;10.172;2023-02-28T16:43:59;3.53;;;2.93;;
2462;SDS011;1243;54.298;10.172;2023-02-28T16:46:34;5.73;;;3.33;;
2462;SDS011;1243;54.298;10.172;2023-02-28T16:49:00;3.50;;;3.20;;
2462;SDS011;1243;54.298;10.172;2023-02-28T16:51:26;3.93;;;3.50;;
2462;SDS011;1243;54.298;10.172;2023-02-28T16:53:52;4.23;;;3.90;;
2462;SDS011;1243;54.298;10.172;2023-02-28T16:56:19;4.73;;;4.00;;
2462;SDS011;1243;54.298;10.172;2023-02-28T16:58:47;6.30;;;3.80;;
2462;SDS011;1243;54.298;10.172;2023-02-28T17:01:14;8.23;;;3.70;;
2462;SDS011;1243;54.298;10.172;2023-02-28T17:03:40;8.90;;;4.30;;
2462;SDS011;1243;54.298;10.172;2023-02-28T17:06:16;5.47;;;3.67;;
2462;SDS011;1243;54.298;10.172;2023-02-28T17:08:50;4.30;;;3.80;;
2462;SDS011;1243;54.298;10.172;2023-02-28T17:11:17;8.40;;;3.47;;
2462;SDS011;1243;54.298;10.172;2023-02-28T17:13:43;4.10;;;3.70;;
2462;SDS011;1243;54.298;10.172;2023-02-28T17:16:25;3.40;;;3.20;;
2462;SDS011;1243;54.298;10.172;2023-02-28T17:19:01;4.33;;;3.63;;
2462;SDS011;1243;54.298;10.172;2023-02-28T17:21:29;3.57;;;3.17;;
2462;SDS011;1243;54.298;10.172;2023-02-28T17:23:56;3.13;;;2.87;;
2462;SDS011;1243;54.298;10.172;2023-02-28T17:26:22;3.50;;;3.30;;
2462;SDS011;1243;54.298;10.172;2023-02-28T17:28:49;4.47;;;4.07;;
2462;SDS011;1243;54.298;10.172;2023-02-28T17:31:16;4.43;;;3.83;;
2462;SDS011;1243;54.298;10.172;2023-02-28T17:33:43;4.40;;;3.93;;
2462;SDS011;1243;54.298;10.172;2023-02-28T17:36:16;4.33;;;3.93;;
2462;SDS011;1243;54.298;10.172;2023-02-28T17:38:47;4.23;;;3.60;;
2462;SDS011;1243;54.298;10.172;2023-02-28T17:41:13;3.80;;;3.47;;
2462;SDS011;1243;54.298;10.172;2023-02-28T17:43:39;4.53;;;3.80;;
2462;SDS011;1243;54.298;10.172;2023-02-28T17:46:05;4.60;;;4.20;;
2462;SDS011;1243;54.298;10.172;2023-02-28T17:48:39;8.87;;;5.20;;
2462;SDS011;1243;54.298;10.172;2023-02-28T17:51:04;6.20;;;4.70;;
2462;SDS011;1243;54.298;10.172;2023-02-28T17:53:30;6.30;;;4.93;;
2462;SDS011;1243;54.298;10.172;2023-02-28T17:55:56;6.93;;;5.07;;
2462;SDS011;1243;54.298;10.172;2023-02-28T17:58:21;6.17;;;5.57;;
2462;SDS011;1243;54.298;10.172;2023-02-28T18:00:47;7.17;;;6.37;;
2462;SDS011;1243;54.298;10.172;2023-02-28T18:03:18;7.17;;;5.73;;
2462;SDS011;1243;54.298;10.172;2023-02-28T18:05:45;7.10;;;5.97;;
2462;SDS011;1243;54.298;10.172;2023-02-28T18:08:11;11.23;;;5.27;;
2462;SDS011;1243;54.298;10.172;2023-02-28T18:10:38;5.70;;;5.13;;
2462;SDS011;1243;54.298;10.172;2023-02-28T18:13:04;8.40;;;5.37;;
2462;SDS011;1243;54.298;10.172;2023-02-28T18:15:30;8.40;;;4.70;;